Terminal Aerodrome Forecast
Issued by NWS North Platte, NE

Home | Current Version | Previous Version | Text Only | Print | Product List | Glossary Off
Versions: 1 2 3 4 5 6 7 8 9 10 11 12 13 14 15 16 17 18 19 20

000
FTUS43 KLBF 252300
TAFVTN
TAF
KVTN 252320Z 2600/2624 35012G21KT P6SM OVC200
     FM260100 33010KT P6SM SCT035 BKN250
     FM260400 VRB03KT P6SM BKN100
     FM261600 27012G19KT 3SM -SHRA BKN021
     FM262000 32017G29KT P6SM SCT021=

USA.gov is the U.S. government's official web portal to all federal, state and local government web resources and services.